Time;durP1;ratioP1;P1;durP2;ratioP2;P2;SDS_P1;SDS_P2;PMS_P1;PMS_P2;Temp;Humidity;BMP_temperature;BMP_pressure;BME280_temperature;BME280_humidity;BME280_pressure;Samples;Min_cycle;Max_cycle;Signal;HPM_P1;HPM_P2
2022/05/17 00:01:00;;;;;;;5.80;3.20;;;;;;;17.06;74.44;100742.59;4971504;28;20027;-74
2022/05/17 00:03:26;;;;;;;8.15;3.47;;;;;;;17.04;74.32;100744.88;4996827;28;20034;-74
2022/05/17 00:05:51;;;;;;;6.97;3.45;;;;;;;17.02;74.50;100752.84;4996904;28;20068;-75
2022/05/17 00:08:17;;;;;;;4.55;3.17;;;;;;;17.01;74.41;100745.56;4979300;28;20030;-74
2022/05/17 00:10:44;;;;;;;6.95;3.70;;;;;;;16.97;74.30;100744.59;4996679;28;20045;-74
2022/05/17 00:13:09;;;;;;;6.85;3.70;;;;;;;16.96;74.45;100748.53;4997031;28;20053;-74
2022/05/17 00:15:35;;;;;;;6.07;3.30;;;;;;;16.93;74.54;100733.19;4985709;28;20042;-74
2022/05/17 00:18:00;;;;;;;4.90;3.10;;;;;;;16.90;74.47;100739.47;4974335;28;20035;-74
2022/05/17 00:20:26;;;;;;;6.13;3.20;;;;;;;16.89;74.76;100737.00;4979445;28;20085;-74
2022/05/17 00:22:52;;;;;;;5.70;3.47;;;;;;;16.85;74.64;100730.38;4995294;28;20031;-74
2022/05/17 00:25:18;;;;;;;7.75;3.80;;;;;;;16.81;74.33;100733.03;4996824;28;20065;-74
2022/05/17 00:27:44;;;;;;;7.18;3.45;;;;;;;16.80;74.71;100733.34;4963474;28;20391;-74
2022/05/17 00:30:11;;;;;;;5.40;3.30;;;;;;;16.76;74.47;100735.97;4996833;28;20049;-74
2022/05/17 00:32:36;;;;;;;7.03;3.42;;;;;;;16.74;75.06;100736.31;4996939;28;20038;-74
2022/05/17 00:35:02;;;;;;;7.97;3.20;;;;;;;16.69;74.93;100733.69;4996654;28;20061;-74
2022/05/17 00:37:27;;;;;;;6.47;3.50;;;;;;;16.68;74.66;100732.00;4982740;28;20042;-74
2022/05/17 00:39:53;;;;;;;7.75;3.72;;;;;;;16.64;74.78;100731.03;4983045;28;20038;-75
2022/05/17 00:42:19;;;;;;;4.88;2.97;;;;;;;16.62;74.70;100732.50;5000621;28;20054;-74
2022/05/17 00:44:45;;;;;;;6.93;3.63;;;;;;;16.59;74.89;100727.56;5000760;28;20113;-74
2022/05/17 00:47:46;;;;;;;5.82;3.50;;;;;;;16.55;74.95;100727.41;5000540;28;20033;-74
2022/05/17 00:50:28;;;;;;;5.60;3.13;;;;;;;16.51;74.95;100726.41;4953228;28;20050;-74
2022/05/17 00:52:59;;;;;;;4.30;3.03;;;;;;;16.49;75.00;100717.50;4993850;28;20049;-74
2022/05/17 00:55:29;;;;;;;6.15;3.20;;;;;;;16.44;75.46;100718.50;4988280;28;20026;-74
2022/05/17 00:58:01;;;;;;;6.05;3.35;;;;;;;16.44;75.45;100718.50;5000534;28;20114;-74
2022/05/17 01:00:28;;;;;;;6.68;3.50;;;;;;;16.39;75.27;100713.03;4982933;28;20061;-74
2022/05/17 01:02:59;;;;;;;6.20;3.10;;;;;;;16.38;75.60;100717.00;4999651;28;20109;-74
2022/05/17 01:05:25;;;;;;;6.90;3.33;;;;;;;16.35;75.63;100716.81;4967331;28;20085;-74
2022/05/17 01:07:53;;;;;;;5.22;3.42;;;;;;;16.31;75.90;100708.25;5000201;28;20030;-74
2022/05/17 01:10:19;;;;;;;5.68;3.08;;;;;;;16.28;75.92;100704.13;4982533;28;20045;-74
2022/05/17 01:14:57;;;;;;;5.38;3.40;;;;;;;16.25;75.50;100701.97;4999921;28;20310;-74
2022/05/17 01:15:30;;;;;;;6.00;3.90;;;;;;;16.24;75.72;100694.75;4974923;28;20035;-74
2022/05/17 01:17:55;;;;;;;5.65;3.22;;;;;;;16.21;75.81;100695.38;4976847;28;20547;-74
2022/05/17 01:20:21;;;;;;;3.83;2.92;;;;;;;16.17;75.88;100694.38;4998713;28;20479;-74
2022/05/17 01:22:46;;;;;;;6.93;3.17;;;;;;;16.15;76.10;100691.06;4998751;28;20033;-74
2022/05/17 01:25:12;;;;;;;4.20;3.30;;;;;;;16.13;75.95;100685.00;4982233;28;20037;-74
2022/05/17 01:27:42;;;;;;;6.75;3.40;;;;;;;16.11;76.21;100678.88;4999891;28;20088;-74
2022/05/17 01:30:16;;;;;;;5.25;3.33;;;;;;;16.08;75.88;100687.94;4962951;28;20031;-74
2022/05/17 01:32:42;;;;;;;5.13;3.03;;;;;;;16.04;76.03;100684.97;4963528;28;20039;-74
2022/05/17 01:35:08;;;;;;;7.40;3.80;;;;;;;16.02;76.32;100690.09;4992604;28;20038;-74
2022/05/17 01:37:34;;;;;;;4.35;3.17;;;;;;;15.98;76.39;100689.06;4966103;28;20037;-75
2022/05/17 01:40:00;;;;;;;6.57;3.13;;;;;;;15.96;76.43;100690.53;4999320;28;20026;-74
2022/05/17 01:42:25;;;;;;;5.18;3.17;;;;;;;15.94;76.86;100699.28;4982125;28;20399;-74
2022/05/17 01:44:51;;;;;;;6.47;3.40;;;;;;;15.93;76.74;100685.59;4999697;28;20030;-74
2022/05/17 01:47:16;;;;;;;5.88;3.22;;;;;;;15.91;76.47;100685.09;4980789;28;20547;-74
2022/05/17 01:49:42;;;;;;;5.32;3.55;;;;;;;15.88;76.49;100678.19;4999496;28;20041;-74
2022/05/17 01:52:08;;;;;;;6.10;3.40;;;;;;;15.85;76.18;100682.47;4999357;28;20035;-74
2022/05/17 01:54:33;;;;;;;4.80;3.45;;;;;;;15.82;76.36;100688.72;4999413;28;20030;-74
2022/05/17 01:56:59;;;;;;;4.75;3.30;;;;;;;15.80;76.69;100691.03;4981429;28;20031;-74
2022/05/17 01:59:24;;;;;;;6.20;3.50;;;;;;;15.76;76.45;100684.41;4981372;28;20084;-74
2022/05/17 02:01:50;;;;;;;4.63;3.30;;;;;;;15.71;76.85;100692.97;4980043;28;20026;-74
2022/05/17 02:04:15;;;;;;;5.30;2.80;;;;;;;15.72;76.68;100691.81;4986600;28;20035;-74
2022/05/17 02:06:42;;;;;;;6.20;3.35;;;;;;;15.68;76.80;100692.75;4998585;28;20434;-74
2022/05/17 02:09:08;;;;;;;5.30;3.20;;;;;;;15.68;77.19;100687.16;4999124;28;20026;-74
2022/05/17 02:11:33;;;;;;;4.90;3.05;;;;;;;15.65;77.42;100697.00;4998625;28;20054;-74
2022/05/17 02:13:59;;;;;;;6.07;3.83;;;;;;;15.63;77.09;100696.53;4965344;28;20031;-74
2022/05/17 02:16:24;;;;;;;5.90;3.65;;;;;;;15.60;77.17;100698.00;4985899;28;20431;-74
2022/05/17 02:18:50;;;;;;;4.55;3.28;;;;;;;15.57;77.17;100697.81;4981637;28;20035;-74
2022/05/17 02:21:16;;;;;;;4.95;3.85;;;;;;;15.54;77.27;100692.84;4981540;28;20051;-74
2022/05/17 02:23:42;;;;;;;4.88;3.35;;;;;;;15.53;77.30;100696.81;4976513;28;20037;-74
2022/05/17 02:26:07;;;;;;;7.15;3.40;;;;;;;15.49;77.08;100690.19;4981337;28;20030;-74
2022/05/17 02:28:33;;;;;;;6.60;3.70;;;;;;;15.47;77.28;100698.09;4998819;28;20050;-74
2022/05/17 02:30:58;;;;;;;4.95;3.20;;;;;;;15.42;77.38;100691.50;4981585;28;20038;-74
2022/05/17 02:33:24;;;;;;;5.72;3.63;;;;;;;15.41;77.47;100703.03;4998830;28;20034;-74
2022/05/17 02:35:49;;;;;;;4.68;3.28;;;;;;;15.40;77.58;100699.38;4981160;28;20049;-74
2022/05/17 02:38:15;;;;;;;5.38;3.50;;;;;;;15.39;77.56;100703.34;4980977;28;20561;-74
2022/05/17 02:40:40;;;;;;;4.65;3.28;;;;;;;15.37;77.16;100693.59;4998230;28;20395;-74
2022/05/17 02:43:06;;;;;;;5.50;3.25;;;;;;;15.37;77.52;100704.78;4981161;28;20399;-74
2022/05/17 02:45:31;;;;;;;6.10;3.22;;;;;;;15.37;77.45;100705.63;4998436;28;20130;-74
2022/05/17 02:47:57;;;;;;;6.57;3.83;;;;;;;15.35;77.29;100707.09;4998337;28;20026;-74
2022/05/17 02:50:23;;;;;;;5.57;3.63;;;;;;;15.36;77.52;100703.16;4998286;28;20475;-74
2022/05/17 02:52:48;;;;;;;6.28;3.67;;;;;;;15.35;77.57;100702.34;4998294;28;20046;-74
2022/05/17 02:55:14;;;;;;;4.63;3.20;;;;;;;15.37;77.74;100693.59;4979385;28;20038;-74
2022/05/17 02:57:39;;;;;;;7.00;3.55;;;;;;;15.38;77.86;100696.09;4998168;28;20027;-74
2022/05/17 03:00:08;;;;;;;4.82;3.30;;;;;;;15.37;78.18;100697.22;4980154;28;20041;-74
2022/05/17 03:02:33;;;;;;;4.63;3.17;;;;;;;15.37;77.77;100699.19;4978408;28;20124;-74
2022/05/17 03:04:59;;;;;;;6.45;3.97;;;;;;;15.37;78.12;100694.44;4997405;28;20038;-74
2022/05/17 03:07:24;;;;;;;6.00;3.55;;;;;;;15.39;77.95;100694.94;4998000;28;20034;-75
2022/05/17 03:09:50;;;;;;;5.95;3.55;;;;;;;15.37;77.94;100691.63;4997706;28;20077;-75
2022/05/17 03:12:15;;;;;;;4.93;3.13;;;;;;;15.40;77.79;100690.16;4968789;28;20046;-74
2022/05/17 03:14:41;;;;;;;5.22;3.25;;;;;;;15.38;77.84;100687.69;4974621;28;20031;-75
2022/05/17 03:17:14;;;;;;;6.68;3.85;;;;;;;15.38;78.05;100684.91;4969195;28;20037;-74
2022/05/17 03:19:40;;;;;;;5.32;3.85;;;;;;;15.39;78.19;100680.94;4978340;28;20031;-74
2022/05/17 03:22:05;;;;;;;8.05;3.65;;;;;;;15.37;78.39;100688.00;4968509;28;20453;-74
2022/05/17 03:24:31;;;;;;;6.63;3.42;;;;;;;15.37;78.35;100688.00;4976445;28;20031;-75
2022/05/17 03:26:57;;;;;;;6.60;3.97;;;;;;;15.35;78.27;100688.34;4977945;28;20487;-74
2022/05/17 03:29:23;;;;;;;7.47;3.88;;;;;;;15.34;78.15;100683.88;4961139;28;20384;-74
2022/05/17 03:31:48;;;;;;;4.38;3.17;;;;;;;15.34;78.28;100681.09;4978162;28;20094;-74
2022/05/17 03:34:14;;;;;;;7.15;3.78;;;;;;;15.32;78.47;100697.38;4977988;28;20058;-74
2022/05/17 03:36:39;;;;;;;4.65;3.60;;;;;;;15.31;77.99;100678.94;4978009;28;20038;-74
2022/05/17 03:39:05;;;;;;;6.53;3.78;;;;;;;15.31;78.09;100683.69;4978083;28;20031;-74
2022/05/17 03:41:30;;;;;;;6.50;3.50;;;;;;;15.29;78.19;100678.41;4977744;28;20418;-75
2022/05/17 03:43:56;;;;;;;5.88;3.72;;;;;;;15.30;78.06;100677.28;4973128;28;20038;-74
2022/05/17 03:46:22;;;;;;;6.78;3.83;;;;;;;15.27;78.46;100677.94;4969727;28;20027;-75
2022/05/17 03:48:48;;;;;;;8.70;3.83;;;;;;;15.26;78.15;100673.47;4977671;28;20109;-75
2022/05/17 03:51:15;;;;;;;6.75;3.72;;;;;;;15.25;78.67;100673.81;4977881;28;20038;-74
2022/05/17 03:53:41;;;;;;;5.10;3.65;;;;;;;15.23;78.60;100673.28;4977829;28;20035;-74
2022/05/17 03:56:06;;;;;;;7.53;3.83;;;;;;;15.20;78.40;100677.56;4977263;28;20034;-75
2022/05/17 03:58:32;;;;;;;5.82;3.70;;;;;;;15.18;78.90;100672.31;4973258;28;20026;-75
2022/05/17 04:00:57;;;;;;;7.03;3.65;;;;;;;15.18;78.78;100671.44;4977590;28;20027;-75
2022/05/17 04:03:23;;;;;;;6.00;3.60;;;;;;;15.15;78.55;100674.88;4973018;28;20027;-74
2022/05/17 04:05:48;;;;;;;3.90;3.20;;;;;;;15.14;78.85;100676.06;4977483;28;20035;-74
2022/05/17 04:08:14;;;;;;;5.20;3.53;;;;;;;15.13;78.59;100680.00;4977606;28;20027;-75
2022/05/17 04:10:39;;;;;;;6.97;3.65;;;;;;;15.11;78.76;100680.31;4959238;28;20033;-75
2022/05/17 04:13:05;;;;;;;8.00;3.92;;;;;;;15.08;78.98;100675.38;4995931;28;20569;-75
2022/05/17 04:15:31;;;;;;;4.45;3.40;;;;;;;15.06;78.76;100671.22;4986458;28;20034;-75
2022/05/17 04:17:56;;;;;;;7.55;4.22;;;;;;;15.06;78.53;100674.03;4994357;28;20665;-75
2022/05/17 04:20:23;;;;;;;6.72;3.75;;;;;;;15.04;78.79;100677.13;4979432;28;20042;-75
2022/05/17 04:22:49;;;;;;;5.47;3.35;;;;;;;15.03;78.94;100672.69;4979040;28;20387;-75
2022/05/17 04:25:18;;;;;;;4.97;3.53;;;;;;;15.01;78.76;100674.16;4979181;28;20134;-75
2022/05/17 04:27:46;;;;;;;6.05;3.88;;;;;;;14.99;79.17;100666.09;4996901;28;20388;-75
2022/05/17 04:30:12;;;;;;;6.88;3.70;;;;;;;14.96;79.14;100669.53;4979932;28;20033;-74
2022/05/17 04:32:37;;;;;;;6.70;3.95;;;;;;;14.94;79.92;100669.84;4996684;28;20030;-75
2022/05/17 04:35:03;;;;;;;7.05;4.00;;;;;;;14.93;79.95;100672.94;4979558;28;20472;-75
2022/05/17 04:37:29;;;;;;;5.57;3.30;;;;;;;14.91;79.42;100669.66;4996613;28;20023;-75
2022/05/17 04:39:55;;;;;;;5.20;3.40;;;;;;;14.90;79.59;100668.81;4996366;28;20126;-75
2022/05/17 04:42:20;;;;;;;6.28;3.40;;;;;;;14.89;79.66;100669.97;4979351;28;20031;-74
2022/05/17 04:44:46;;;;;;;5.95;3.45;;;;;;;14.89;79.41;100660.78;4975913;28;20027;-75
2022/05/17 04:47:11;;;;;;;5.50;3.70;;;;;;;14.90;79.25;100668.81;4995774;28;20038;-74
2022/05/17 04:49:37;;;;;;;5.97;3.28;;;;;;;14.93;79.71;100665.41;4996062;28;20664;-74
2022/05/17 04:52:03;;;;;;;5.47;3.50;;;;;;;14.92;79.50;100666.53;4996585;28;20073;-74
2022/05/17 04:54:28;;;;;;;4.55;3.50;;;;;;;14.95;79.54;100665.91;4996473;28;20030;-74
2022/05/17 04:56:54;;;;;;;3.80;3.20;;;;;;;14.97;79.33;100665.59;4995287;28;20026;-74
2022/05/17 04:59:20;;;;;;;6.47;3.47;;;;;;;15.00;79.47;100666.94;4996485;28;20061;-74
2022/05/17 05:01:46;;;;;;;4.55;3.58;;;;;;;15.03;79.46;100663.47;4979283;28;20475;-74
2022/05/17 05:04:11;;;;;;;4.82;3.05;;;;;;;15.05;79.30;100664.81;4993224;28;20053;-74
2022/05/17 05:06:37;;;;;;;6.22;3.60;;;;;;;15.08;79.73;100666.16;4996413;28;20027;-75
2022/05/17 05:09:03;;;;;;;4.18;3.20;;;;;;;15.13;79.46;100666.84;4996479;28;20034;-74
2022/05/17 05:11:29;;;;;;;5.88;3.05;;;;;;;15.17;79.91;100672.59;4996027;28;20058;-74
2022/05/17 05:13:55;;;;;;;5.55;3.30;;;;;;;15.24;79.55;100667.41;4996491;28;20510;-74
2022/05/17 05:16:20;;;;;;;6.97;3.42;;;;;;;15.31;80.39;100670.53;4966018;28;20492;-74
2022/05/17 05:18:46;;;;;;;7.28;3.60;;;;;;;15.40;80.09;100676.16;4978920;28;20031;-74
2022/05/17 05:21:13;;;;;;;5.38;3.30;;;;;;;15.48;82.93;100680.97;4996555;28;20034;-74
2022/05/17 05:23:40;;;;;;;7.45;4.40;;;;;;;15.57;82.93;100678.22;4998145;28;20062;-74
2022/05/17 05:26:06;;;;;;;6.75;4.15;;;;;;;15.68;81.98;100681.53;4999603;28;20092;-75
2022/05/17 05:28:31;;;;;;;7.55;4.38;;;;;;;15.78;83.14;100682.09;4982554;28;20066;-75
2022/05/17 05:30:57;;;;;;;8.43;4.78;;;;;;;15.92;83.14;100686.75;4982487;28;20026;-75
2022/05/17 05:33:23;;;;;;;6.72;4.07;;;;;;;16.02;81.36;100694.88;4999846;28;20026;-74
2022/05/17 05:35:48;;;;;;;4.93;4.00;;;;;;;16.16;80.30;100687.16;4999633;28;20033;-70
2022/05/17 05:38:14;;;;;;;6.90;3.90;;;;;;;16.33;80.19;100703.16;4966283;28;20479;-72
2022/05/17 05:40:41;;;;;;;8.00;4.40;;;;;;;16.47;80.68;100698.22;4965770;28;20026;-72
2022/05/17 05:43:07;;;;;;;10.25;5.15;;;;;;;16.62;80.73;100696.88;4947001;28;20038;-72
2022/05/17 05:45:33;;;;;;;10.05;4.93;;;;;;;16.79;79.57;100689.66;4942129;28;20041;-72
2022/05/17 05:47:59;;;;;;;7.95;5.25;;;;;;;16.93;79.26;100687.47;4939619;28;20067;-72
2022/05/17 05:50:24;;;;;;;12.02;4.57;;;;;;;17.09;78.82;100694.22;4983060;28;20035;-72
2022/05/17 05:52:50;;;;;;;7.15;4.55;;;;;;;17.25;78.66;100693.69;4946993;28;20041;-72
2022/05/17 05:55:20;;;;;;;9.82;5.57;;;;;;;17.38;78.23;100687.03;4963684;28;20410;-72
2022/05/17 05:57:46;;;;;;;5.90;3.90;;;;;;;17.55;77.13;100681.38;4946572;28;20084;-72
2022/05/17 06:00:12;;;;;;;10.90;4.50;;;;;;;17.72;76.30;100688.03;4946562;28;20475;-71
2022/05/17 06:02:38;;;;;;;5.95;4.13;;;;;;;17.91;75.29;100691.28;4957678;28;20018;-72
2022/05/17 06:05:04;;;;;;;7.38;4.72;;;;;;;18.03;76.13;100682.94;4981631;28;20066;-72
2022/05/17 06:07:29;;;;;;;8.63;4.03;;;;;;;18.23;74.18;100694.56;4946594;28;20110;-72
2022/05/17 06:09:55;;;;;;;6.45;3.72;;;;;;;18.40;72.65;100691.59;4999245;28;20042;-75
2022/05/17 06:12:21;;;;;;;7.07;4.03;;;;;;;18.60;71.96;100700.38;4953221;28;20054;-75
2022/05/17 06:14:46;;;;;;;7.13;4.13;;;;;;;18.77;71.89;100691.81;4957748;29;20035;-75
2022/05/17 06:17:12;;;;;;;7.05;3.92;;;;;;;18.92;70.94;100682.75;4962190;28;20027;-75
2022/05/17 06:19:37;;;;;;;5.72;3.97;;;;;;;19.10;71.34;100685.38;4979369;28;20035;-75
2022/05/17 06:22:03;;;;;;;6.93;4.03;;;;;;;19.24;71.33;100687.88;4962264;28;20022;-75
2022/05/17 06:24:28;;;;;;;8.52;4.00;;;;;;;19.39;71.03;100684.41;4978524;28;20568;-72
2022/05/17 06:26:54;;;;;;;8.82;3.95;;;;;;;19.52;70.06;100679.59;4979161;28;20027;-74
2022/05/17 06:29:20;;;;;;;5.47;3.72;;;;;;;19.68;69.51;100689.03;4962057;28;20061;-72
2022/05/17 06:31:45;;;;;;;8.65;4.07;;;;;;;19.81;69.52;100682.22;4979704;28;20041;-72
2022/05/17 06:34:11;;;;;;;8.75;3.58;;;;;;;19.99;68.73;100673.50;4978415;28;20035;-75
2022/05/17 06:36:37;;;;;;;6.40;3.80;;;;;;;20.17;67.88;100679.72;4961842;28;20039;-75
2022/05/17 06:39:05;;;;;;;5.97;3.47;;;;;;;20.34;67.36;100678.63;4961798;28;20094;-75
2022/05/17 06:41:32;;;;;;;6.65;3.08;;;;;;;20.52;66.19;100680.78;4961490;28;20077;-75
2022/05/17 06:43:58;;;;;;;7.43;3.05;;;;;;;20.65;65.61;100677.97;4961915;28;20038;-75
2022/05/17 06:46:23;;;;;;;6.25;2.67;;;;;;;20.79;65.16;100677.56;4979009;28;20107;-75
2022/05/17 06:48:49;;;;;;;5.15;2.50;;;;;;;20.96;64.64;100677.25;4978740;28;20098;-76
2022/05/17 06:51:14;;;;;;;5.75;2.35;;;;;;;21.05;64.75;100680.72;4979120;28;20384;-75
2022/05/17 06:53:40;;;;;;;4.85;2.30;;;;;;;21.19;63.85;100672.63;4978748;28;20046;-75
2022/05/17 06:56:06;;;;;;;5.53;2.30;;;;;;;21.36;63.17;100665.00;4977444;28;20039;-75
2022/05/17 06:58:31;;;;;;;6.28;2.28;;;;;;;21.49;62.52;100669.44;4976892;28;20400;-76
2022/05/17 07:00:57;;;;;;;5.95;2.08;;;;;;;21.56;62.39;100669.63;4961240;28;20031;-75
2022/05/17 07:03:22;;;;;;;3.28;1.90;;;;;;;21.70;61.86;100665.47;4961151;28;20039;-75
2022/05/17 07:05:49;;;;;;;4.30;1.98;;;;;;;21.75;60.43;100662.38;4977308;28;20093;-70
2022/05/17 07:08:14;;;;;;;4.90;1.73;;;;;;;21.93;60.28;100660.00;4978594;28;20110;-70
2022/05/17 07:13:24;;;;;;;5.93;1.90;;;;;;;22.24;60.20;100657.13;4961192;28;20130;-75
2022/05/17 07:15:50;;;;;;;4.68;1.90;;;;;;;22.38;60.19;100662.28;4948294;28;20500;-75
2022/05/17 07:18:21;;;;;;;4.00;1.80;;;;;;;22.52;59.53;100656.91;4961019;28;20476;-75
2022/05/17 07:20:46;;;;;;;3.88;1.70;;;;;;;22.57;57.88;100667.13;4960935;28;20038;-74
2022/05/17 07:23:12;;;;;;;4.00;1.40;;;;;;;22.74;57.90;100663.03;4961562;28;20062;-75
2022/05/17 07:25:41;;;;;;;3.70;1.77;;;;;;;22.84;57.76;100668.06;4960593;28;20117;-75
2022/05/17 07:28:08;;;;;;;4.22;1.60;;;;;;;22.92;57.23;100664.19;4961069;28;20506;-75
2022/05/17 07:30:33;;;;;;;3.15;1.45;;;;;;;23.02;57.05;100654.31;4960945;28;20031;-75
2022/05/17 07:32:59;;;;;;;5.43;1.92;;;;;;;23.14;56.74;100656.16;4978450;28;20030;-75
2022/05/17 07:35:24;;;;;;;3.17;1.30;;;;;;;23.26;56.47;100658.78;4978070;28;20030;-75
2022/05/17 07:37:50;;;;;;;7.07;1.40;;;;;;;23.42;54.95;100647.34;4977763;28;20045;-75
2022/05/17 07:40:16;;;;;;;7.93;1.42;;;;;;;23.55;54.53;100665.78;4977705;28;20119;-75
2022/05/17 07:42:42;;;;;;;3.92;1.48;;;;;;;23.63;54.27;100659.03;4977974;28;20117;-75
2022/05/17 07:45:08;;;;;;;4.65;1.45;;;;;;;23.68;52.44;100655.09;4977966;28;20027;-74
2022/05/17 07:47:34;;;;;;;4.95;1.17;;;;;;;23.80;51.94;100660.56;4960664;28;20027;-75
2022/05/17 07:50:00;;;;;;;4.18;1.10;;;;;;;23.89;51.78;100656.66;4977532;28;20030;-75
2022/05/17 07:52:25;;;;;;;5.15;1.25;;;;;;;23.96;51.15;100651.06;4960783;28;20045;-75
2022/05/17 07:54:51;;;;;;;2.42;1.30;;;;;;;24.05;52.03;100660.94;4976016;28;20028;-74
2022/05/17 07:57:16;;;;;;;4.07;1.35;;;;;;;24.08;51.03;100668.69;4977710;28;20057;-75
2022/05/17 07:59:43;;;;;;;4.80;1.33;;;;;;;24.13;51.74;100666.75;4977576;28;20027;-74
2022/05/17 08:02:09;;;;;;;3.30;1.08;;;;;;;24.18;50.95;100649.38;4977666;28;20027;-75
2022/05/17 08:04:34;;;;;;;4.60;1.10;;;;;;;24.27;51.55;100656.41;4972134;28;20026;-74
2022/05/17 08:07:00;;;;;;;4.65;1.30;;;;;;;24.35;50.82;100653.66;4966672;28;20034;-75
2022/05/17 08:09:26;;;;;;;4.10;1.00;;;;;;;24.48;50.92;100658.72;4977505;28;20499;-74
2022/05/17 08:11:52;;;;;;;7.85;1.02;;;;;;;24.56;50.99;100659.66;4985880;28;20062;-74
2022/05/17 08:14:18;;;;;;;3.08;1.25;;;;;;;24.65;50.50;100650.84;4995946;28;20027;-74
2022/05/17 08:16:43;;;;;;;4.03;1.20;;;;;;;24.77;50.80;100647.75;4951274;28;20035;-74
2022/05/17 08:19:09;;;;;;;4.72;0.80;;;;;;;24.88;50.60;100639.38;4997089;28;20034;-75
2022/05/17 08:21:35;;;;;;;2.13;0.80;;;;;;;24.99;50.12;100637.44;4996856;28;20030;-74
2022/05/17 08:24:01;;;;;;;2.35;0.90;;;;;;;25.09;49.96;100633.88;4995250;28;20027;-74
2022/05/17 08:29:11;;;;;;;4.38;1.00;;;;;;;25.34;48.52;100639.84;4996768;28;20034;-74
2022/05/17 08:31:37;;;;;;;4.35;1.05;;;;;;;25.44;48.92;100640.34;4979444;28;20680;-74
2022/05/17 08:34:02;;;;;;;4.90;0.90;;;;;;;25.52;48.12;100634.34;4996600;28;20037;-74
2022/05/17 08:36:27;;;;;;;2.65;0.80;;;;;;;25.65;47.38;100634.81;4996617;28;20508;-74
2022/05/17 08:38:53;;;;;;;2.80;0.45;;;;;;;25.67;46.02;100628.75;4979225;28;20034;-74
2022/05/17 08:41:21;;;;;;;4.82;0.70;;;;;;;25.77;45.85;100625.16;4996410;28;20050;-74
2022/05/17 08:44:09;;;;;;;2.25;0.45;;;;;;;25.81;45.67;100618.28;4979295;28;20030;-74
2022/05/17 08:46:44;;;;;;;6.93;0.90;;;;;;;25.98;45.13;100616.81;4980077;28;20109;-75
2022/05/17 08:49:22;;;;;;;5.07;0.70;;;;;;;25.96;44.49;100624.09;4980840;28;20053;-74
2022/05/17 08:51:49;;;;;;;5.95;0.90;;;;;;;26.01;44.04;100613.16;4979124;28;20395;-74
2022/05/17 08:54:27;;;;;;;4.28;0.50;;;;;;;26.04;43.67;100606.69;4996611;28;20033;-74
2022/05/17 08:57:31;;;;;;;1.48;0.50;;;;;;;26.04;44.32;100600.97;4978778;28;20031;-75
2022/05/17 09:00:14;;;;;;;;;;;;;;;26.10;43.95;100595.72;5000782;28;20109;-74
2022/05/17 09:02:43;;;;;;;5.60;0.60;;;;;;;26.13;43.89;100596.97;4997258;28;19949;-74
2022/05/17 09:05:25;;;;;;;4.30;0.85;;;;;;;26.15;44.57;100586.81;5000314;28;20464;-74
2022/05/17 09:08:04;;;;;;;2.50;0.50;;;;;;;26.24;45.15;100581.59;4968572;28;20058;-74
2022/05/17 09:10:36;;;;;;;2.92;0.50;;;;;;;26.33;44.69;100588.91;4982501;28;20111;-75
2022/05/17 09:13:11;;;;;;;4.13;0.70;;;;;;;26.34;44.43;100577.16;5000040;28;20081;-74
2022/05/17 09:15:36;;;;;;;3.83;0.50;;;;;;;26.45;44.08;100586.53;4955853;28;20030;-74
2022/05/17 09:18:04;;;;;;;5.60;0.80;;;;;;;26.49;43.71;100575.16;4985356;28;20037;-74
2022/05/17 09:20:34;;;;;;;2.22;0.40;;;;;;;26.56;43.43;100569.53;4982502;28;20066;-74
2022/05/17 09:23:00;;;;;;;3.15;0.70;;;;;;;26.64;43.80;100567.53;4980805;28;20486;-75
2022/05/17 09:25:27;;;;;;;2.78;0.60;;;;;;;26.69;43.79;100567.94;4982217;28;20246;-74
2022/05/17 09:27:53;;;;;;;5.60;0.70;;;;;;;26.77;43.76;100563.06;4999929;28;20411;-74
2022/05/17 09:30:22;;;;;;;14.88;1.10;;;;;;;26.83;43.83;100566.34;4999655;28;20049;-74
2022/05/17 09:32:48;;;;;;;5.75;1.00;;;;;;;26.87;43.88;100570.00;4987369;28;20487;-74
2022/05/17 09:35:21;;;;;;;8.38;0.75;;;;;;;26.91;44.07;100567.97;4982145;28;20057;-75
2022/05/17 09:37:53;;;;;;;2.67;0.60;;;;;;;27.03;43.54;100563.94;4982231;28;20030;-75
2022/05/17 09:40:30;;;;;;;3.33;0.60;;;;;;;27.10;43.08;100559.03;4999316;28;20034;-75
2022/05/17 09:42:58;;;;;;;2.38;0.50;;;;;;;27.18;42.48;100562.75;4999733;28;20034;-74
2022/05/17 09:46:06;;;;;;;9.32;1.27;;;;;;;27.21;42.73;100564.78;4982795;28;20153;-74
2022/05/17 09:54:34;;;;;;;1.70;0.60;;;;;;;27.29;41.76;100549.31;4985271;28;20042;-75
2022/05/17 09:57:24;;;;;;;1.35;0.55;;;;;;;27.42;42.31;100546.06;4999308;28;20105;-74
2022/05/17 09:59:54;;;;;;;5.00;0.70;;;;;;;27.53;41.80;100546.88;4991879;28;20096;-76
2022/05/17 10:02:28;;;;;;;3.25;0.70;;;;;;;27.59;41.15;100550.91;4982255;28;20026;-74
2022/05/17 10:04:53;;;;;;;2.70;0.60;;;;;;;27.66;41.05;100550.09;4997239;28;20490;-75
2022/05/17 10:07:19;;;;;;;5.13;1.15;;;;;;;27.76;41.09;100541.50;4981883;28;20037;-74
2022/05/17 10:09:45;;;;;;;3.60;0.80;;;;;;;27.87;40.51;100540.72;4963839;28;20395;-74
2022/05/17 10:12:30;;;;;;;3.45;0.60;;;;;;;28.00;40.39;100531.28;4970910;28;20043;-74
2022/05/17 10:14:58;;;;;;;3.85;0.68;;;;;;;28.07;40.76;100536.94;4946570;28;20034;-74
2022/05/17 10:17:27;;;;;;;1.05;0.30;;;;;;;28.18;40.29;100536.91;4946567;28;20059;-73
2022/05/17 10:19:58;;;;;;;2.00;0.50;;;;;;;28.21;40.04;100530.38;4966883;28;20607;-74
2022/05/17 10:22:34;;;;;;;4.72;0.88;;;;;;;28.32;40.24;100529.53;4973340;28;20083;-73
2022/05/17 10:25:01;;;;;;;3.40;0.70;;;;;;;28.36;40.25;100528.28;4935744;28;20039;-74
2022/05/17 10:27:49;;;;;;;5.43;0.60;;;;;;;28.47;38.86;100525.38;4979252;28;20109;-74
2022/05/17 10:30:39;;;;;;;5.10;0.80;;;;;;;28.50;39.42;100531.09;4961933;28;20042;-73
2022/05/17 10:33:05;;;;;;;4.45;1.20;;;;;;;28.55;38.66;100529.00;4949165;28;20058;-74
2022/05/17 10:36:01;;;;;;;4.45;0.95;;;;;;;28.45;39.21;100522.16;4961757;28;20031;-74
2022/05/17 10:38:34;;;;;;;5.35;0.75;;;;;;;28.47;39.09;100514.78;4977513;28;20061;-73
2022/05/17 10:40:59;;;;;;;7.15;0.77;;;;;;;28.55;39.42;100517.59;4962359;28;20038;-73
2022/05/17 10:43:32;;;;;;;3.50;0.80;;;;;;;28.51;39.68;100506.19;4961819;28;20480;-73
2022/05/17 10:46:20;;;;;;;3.08;0.60;;;;;;;28.65;39.21;100514.66;4914711;28;20031;-74
2022/05/17 10:48:58;;;;;;;4.90;0.98;;;;;;;28.76;40.14;100522.38;4943667;29;20049;-74
2022/05/17 10:51:44;;;;;;;2.50;0.70;;;;;;;28.87;39.67;100514.53;4939623;28;20026;-74
2022/05/17 10:54:21;;;;;;;3.63;0.80;;;;;;;28.92;39.74;100512.03;4978969;28;20034;-74
2022/05/17 10:57:07;;;;;;;8.00;1.02;;;;;;;29.06;39.43;100510.31;4914198;28;20082;-74
2022/05/17 10:59:44;;;;;;;1.83;0.85;;;;;;;29.06;39.09;100516.03;4971732;28;20568;-72
2022/05/17 11:02:15;;;;;;;2.95;1.02;;;;;;;28.96;38.91;100504.22;4962557;28;20387;-71
2022/05/17 11:05:03;;;;;;;5.35;1.13;;;;;;;28.97;39.47;100502.19;4978394;28;20042;-73
2022/05/17 11:07:34;;;;;;;5.72;1.17;;;;;;;28.93;39.30;100501.41;4947298;28;20086;-73
2022/05/17 11:10:22;;;;;;;3.85;0.80;;;;;;;29.03;39.38;100497.69;4944960;28;20031;-73
2022/05/17 11:13:09;;;;;;;4.65;0.80;;;;;;;29.15;39.54;100487.78;4944919;28;20051;-74
2022/05/17 11:15:35;;;;;;;4.35;1.02;;;;;;;29.25;39.03;100486.03;4929999;29;20050;-74
2022/05/17 11:18:14;;;;;;;3.88;0.88;;;;;;;29.44;38.87;100473.19;4956027;29;20078;-74
2022/05/17 11:20:58;;;;;;;4.88;1.40;;;;;;;29.57;39.42;100469.38;4954310;28;20043;-75
2022/05/17 11:23:45;;;;;;;5.70;1.30;;;;;;;29.72;39.54;100477.81;4940961;29;20035;-75
2022/05/17 11:26:33;;;;;;;5.90;1.42;;;;;;;29.84;38.99;100457.25;4909973;29;20035;-75
2022/05/17 11:29:43;;;;;;;5.05;1.08;;;;;;;30.00;38.84;100453.75;4973824;28;20049;-74
2022/05/17 11:32:21;;;;;;;1.95;0.70;;;;;;;30.14;38.88;100449.88;4905881;29;20043;-75
2022/05/17 11:34:47;;;;;;;2.70;0.90;;;;;;;30.28;38.61;100439.09;4966062;28;20133;-74
2022/05/17 11:37:31;;;;;;;3.05;0.82;;;;;;;30.35;37.80;100451.69;4960810;28;20038;-75
2022/05/17 11:39:57;;;;;;;4.90;0.88;;;;;;;30.38;36.96;100439.34;4978014;28;20046;-75
2022/05/17 11:42:27;;;;;;;8.40;1.27;;;;;;;30.29;36.33;100442.75;4945061;28;20514;-75